Time;durP1;ratioP1;P1;durP2;ratioP2;P2;SDS_P1;SDS_P2;PMS_P1;PMS_P2;Temp;Humidity;BMP_temperature;BMP_pressure;BME280_temperature;BME280_humidity;BME280_pressure;Samples;Min_cycle;Max_cycle;Signal;HPM_P1;HPM_P2
2021/10/10 00:00:07;;;;;;;13.07;9.93;;;;;;;4.30;76.68;102203.31;5010080;28;20672;-82
2021/10/10 00:02:35;;;;;;;13.03;9.97;;;;;;;4.30;76.80;102204.16;5003116;28;20319;-82
2021/10/10 00:05:02;;;;;;;15.33;10.63;;;;;;;4.29;77.25;102205.06;5007426;28;20735;-82
2021/10/10 00:07:28;;;;;;;13.47;10.53;;;;;;;4.31;77.01;102211.16;5012990;28;20677;-81
2021/10/10 00:09:55;;;;;;;14.37;10.60;;;;;;;4.31;77.34;102202.38;5010937;28;20230;-82
2021/10/10 00:12:21;;;;;;;12.40;9.47;;;;;;;4.31;77.12;102210.28;4995727;28;20235;-83
2021/10/10 00:14:48;;;;;;;14.53;10.17;;;;;;;4.31;77.44;102205.03;4997019;28;20678;-83
2021/10/10 00:17:15;;;;;;;14.70;10.67;;;;;;;4.29;77.06;102202.44;5017789;28;20662;-82
2021/10/10 00:19:43;;;;;;;13.47;9.80;;;;;;;4.26;77.10;102207.75;5019164;28;20221;-83
2021/10/10 00:22:09;;;;;;;11.93;9.80;;;;;;;4.23;76.92;102206.91;5018232;28;20225;-83
2021/10/10 00:24:36;;;;;;;11.43;9.57;;;;;;;4.18;76.88;102199.03;5014480;28;20218;-83
2021/10/10 00:27:03;;;;;;;10.37;8.57;;;;;;;4.14;77.67;102207.88;5012367;28;20210;-86
2021/10/10 00:29:29;;;;;;;11.83;9.20;;;;;;;4.10;77.47;102207.06;5008781;28;20230;-84
2021/10/10 00:31:58;;;;;;;11.60;8.80;;;;;;;4.06;77.64;102196.56;5001381;28;20286;-88
2021/10/10 00:34:25;;;;;;;10.80;8.80;;;;;;;4.03;76.83;102202.72;5008658;28;20216;-87
2021/10/10 00:36:53;;;;;;;7.50;6.70;;;;;;;3.97;77.60;102200.16;5004692;28;20214;-87
2021/10/10 00:39:19;;;;;;;7.37;6.60;;;;;;;3.91;77.15;102194.97;5010102;28;20297;-86
2021/10/10 00:41:46;;;;;;;9.00;7.27;;;;;;;3.81;76.27;102202.09;5013188;28;20310;-86
2021/10/10 00:44:13;;;;;;;7.40;6.57;;;;;;;3.72;76.81;102201.34;5008278;28;20206;-86
2021/10/10 00:46:40;;;;;;;8.17;6.70;;;;;;;3.62;77.33;102200.53;5018134;28;20601;-86
2021/10/10 00:49:08;;;;;;;8.97;8.07;;;;;;;3.58;77.68;102193.56;5020254;28;20234;-86
2021/10/10 00:51:36;;;;;;;9.10;7.20;;;;;;;3.56;77.54;102199.75;5019430;28;20238;-86
2021/10/10 00:54:05;;;;;;;10.80;8.23;;;;;;;3.56;78.13;102202.38;5016948;28;20203;-85
2021/10/10 00:56:33;;;;;;;10.23;7.47;;;;;;;3.55;78.33;102198.00;5017208;28;20669;-85
2021/10/10 00:59:01;;;;;;;10.23;8.00;;;;;;;3.55;77.75;102209.41;5018170;28;20303;-86
2021/10/10 01:01:28;;;;;;;13.00;9.60;;;;;;;3.54;78.12;102194.50;5020753;28;20237;-86
2021/10/10 01:03:54;;;;;;;10.90;8.97;;;;;;;3.56;78.32;102197.13;5017612;28;20209;-85
2021/10/10 01:06:21;;;;;;;12.47;9.63;;;;;;;3.54;78.20;102193.63;5013555;28;20589;-86
2021/10/10 01:08:48;;;;;;;11.47;9.20;;;;;;;3.53;78.70;102195.38;5014846;28;20289;-84
2021/10/10 01:11:16;;;;;;;11.77;8.47;;;;;;;3.51;79.03;102188.38;5012752;28;20227;-83
2021/10/10 01:13:43;;;;;;;13.23;9.80;;;;;;;3.51;78.72;102191.00;4998979;28;20219;-83
2021/10/10 01:16:10;;;;;;;12.13;8.93;;;;;;;3.46;79.00;102191.91;4998767;28;20203;-83
2021/10/10 01:18:36;;;;;;;12.60;9.40;;;;;;;3.41;79.01;102188.44;5009994;28;20199;-85
2021/10/10 01:21:04;;;;;;;14.27;9.77;;;;;;;3.36;79.01;102178.88;5012412;28;20237;-84
2021/10/10 01:23:31;;;;;;;14.73;9.73;;;;;;;3.32;79.57;102185.91;5006654;28;20203;-85
2021/10/10 01:25:58;;;;;;;16.77;10.07;;;;;;;3.30;79.69;102182.41;5008468;28;20222;-87
2021/10/10 01:28:24;;;;;;;12.03;9.80;;;;;;;3.29;79.64;102185.94;5016122;28;20225;-86
2021/10/10 01:30:51;;;;;;;12.87;9.60;;;;;;;3.27;79.88;102184.19;5009070;28;20231;-85
2021/10/10 01:33:18;;;;;;;18.63;10.90;;;;;;;3.24;80.10;102177.19;4999339;28;20658;-84
2021/10/10 01:35:44;;;;;;;13.97;10.00;;;;;;;3.22;80.01;102176.34;5013787;28;20226;-85
2021/10/10 01:38:16;;;;;;;12.30;9.30;;;;;;;3.21;79.96;102182.50;5006667;28;20219;-84
2021/10/10 01:40:44;;;;;;;13.10;9.30;;;;;;;3.18;80.45;102173.75;5012796;28;20785;-84
2021/10/10 01:43:11;;;;;;;14.50;8.57;;;;;;;3.13;80.23;102173.78;5013085;28;20203;-85
2021/10/10 01:45:37;;;;;;;11.77;9.20;;;;;;;3.09;80.10;102165.03;5008098;28;20222;-84
2021/10/10 01:48:05;;;;;;;11.03;8.87;;;;;;;3.05;80.67;102168.56;5006097;28;20202;-85
2021/10/10 01:50:33;;;;;;;11.00;8.97;;;;;;;3.01;80.21;102160.75;5015283;28;20230;-85
2021/10/10 01:52:59;;;;;;;11.30;8.50;;;;;;;3.00;80.63;102164.25;5001712;28;20242;-84
2021/10/10 01:55:27;;;;;;;12.00;9.50;;;;;;;2.95;80.93;102164.28;5008779;28;20226;-85
2021/10/10 01:57:54;;;;;;;11.10;9.00;;;;;;;2.91;80.95;102154.66;5013475;28;20293;-84
2021/10/10 02:00:21;;;;;;;11.83;9.00;;;;;;;2.88;80.62;102143.28;5006826;28;20290;-85
2021/10/10 02:02:47;;;;;;;12.00;9.13;;;;;;;2.84;80.39;102149.47;5009731;28;20225;-85
2021/10/10 02:05:14;;;;;;;11.73;9.00;;;;;;;2.81;81.44;102144.22;5007312;28;20297;-85
2021/10/10 02:07:41;;;;;;;15.00;8.97;;;;;;;2.79;81.54;102142.47;5011798;28;20225;-86
2021/10/10 02:10:10;;;;;;;13.10;8.37;;;;;;;2.77;81.38;102138.97;5012666;28;20262;-86
2021/10/10 02:12:38;;;;;;;12.30;8.70;;;;;;;2.75;80.90;102140.75;5011598;28;20258;-86
2021/10/10 02:15:06;;;;;;;12.83;9.33;;;;;;;2.74;81.85;102143.38;5013736;28;20804;-86
2021/10/10 02:17:33;;;;;;;12.27;8.60;;;;;;;2.72;81.25;102142.53;5011139;28;20211;-86
2021/10/10 02:20:00;;;;;;;12.17;8.80;;;;;;;2.71;81.46;102139.03;5006207;28;20203;-85
2021/10/10 02:22:27;;;;;;;11.23;8.63;;;;;;;2.68;81.31;102140.81;5003736;28;20608;-84
2021/10/10 02:24:53;;;;;;;11.47;8.73;;;;;;;2.67;81.60;102145.22;4998354;28;20211;-85
2021/10/10 02:27:20;;;;;;;9.80;8.60;;;;;;;2.66;81.87;102146.09;5010077;28;20200;-85
2021/10/10 02:29:48;;;;;;;15.23;9.13;;;;;;;2.65;82.37;102136.44;5008441;28;20222;-84
2021/10/10 02:32:14;;;;;;;13.40;8.90;;;;;;;2.64;81.89;102139.09;4995482;28;20318;-84
2021/10/10 02:34:41;;;;;;;12.00;8.90;;;;;;;2.61;82.35;102133.84;4995563;28;20216;-85
2021/10/10 02:37:09;;;;;;;11.47;9.23;;;;;;;2.61;82.55;102128.59;5000929;28;20202;-84
2021/10/10 02:39:36;;;;;;;10.17;8.13;;;;;;;2.59;82.20;102125.97;5015527;28;20578;-84
2021/10/10 02:42:03;;;;;;;10.07;7.87;;;;;;;2.58;82.37;102129.47;5006499;28;20585;-83
2021/10/10 02:44:30;;;;;;;11.83;8.43;;;;;;;2.55;82.11;102120.72;4996293;28;20291;-84
2021/10/10 02:46:58;;;;;;;9.83;7.90;;;;;;;2.49;81.91;102126.94;5009715;28;20254;-84
2021/10/10 02:49:25;;;;;;;11.90;8.00;;;;;;;2.43;82.55;102129.59;4995991;28;20235;-83
2021/10/10 02:51:51;;;;;;;11.50;8.47;;;;;;;2.36;82.55;102119.97;5002078;28;20231;-83
2021/10/10 02:54:18;;;;;;;10.83;8.17;;;;;;;2.33;82.36;102112.13;4995820;28;20218;-83
2021/10/10 02:56:44;;;;;;;9.20;7.70;;;;;;;2.30;82.49;102117.41;5012110;28;20233;-85
2021/10/10 02:59:11;;;;;;;13.60;8.10;;;;;;;2.27;82.44;102113.03;5005380;28;20208;-85
2021/10/10 03:01:37;;;;;;;11.77;8.27;;;;;;;2.24;82.69;102115.66;4996199;28;20598;-84
2021/10/10 03:04:05;;;;;;;11.67;7.67;;;;;;;2.23;82.61;102113.06;5013380;28;20221;-84
2021/10/10 03:06:32;;;;;;;8.90;7.03;;;;;;;2.22;82.60;102101.66;5019112;28;20253;-86
2021/10/10 03:08:59;;;;;;;11.10;7.57;;;;;;;2.20;82.94;102111.31;5014278;28;20223;-85
2021/10/10 03:11:25;;;;;;;11.13;8.10;;;;;;;2.19;83.42;102099.03;5008915;28;20233;-84
2021/10/10 03:13:52;;;;;;;10.07;7.80;;;;;;;2.20;83.43;102100.78;5009627;28;20294;-85
2021/10/10 03:16:18;;;;;;;11.43;7.93;;;;;;;2.23;83.01;102100.78;5015023;28;20578;-85
2021/10/10 03:18:45;;;;;;;9.73;7.60;;;;;;;2.25;83.28;102093.75;5010539;28;20571;-84
2021/10/10 03:21:13;;;;;;;9.87;7.27;;;;;;;2.28;83.29;102092.88;4998434;28;20271;-85
2021/10/10 03:23:39;;;;;;;10.90;7.43;;;;;;;2.29;82.98;102078.84;5001605;28;20804;-85
2021/10/10 03:26:06;;;;;;;11.53;8.23;;;;;;;2.30;83.88;102088.50;5012892;28;20309;-87
2021/10/10 03:28:33;;;;;;;10.60;7.37;;;;;;;2.31;83.23;102087.59;5013770;28;20293;-83
2021/10/10 03:30:59;;;;;;;11.53;7.73;;;;;;;2.32;82.91;102087.59;5016835;28;20330;-85
2021/10/10 03:33:26;;;;;;;9.83;7.90;;;;;;;2.29;82.88;102078.84;5015107;28;20211;-85
2021/10/10 03:35:53;;;;;;;9.40;7.63;;;;;;;2.28;82.92;102077.97;5009592;28;20235;-84
2021/10/10 03:38:21;;;;;;;10.33;7.53;;;;;;;2.28;83.08;102077.09;5006499;28;20227;-86
2021/10/10 03:40:47;;;;;;;11.30;7.77;;;;;;;2.29;82.99;102087.63;4998054;28;20663;-85
2021/10/10 03:43:14;;;;;;;11.30;8.47;;;;;;;2.28;83.03;102079.72;5006160;28;20210;-85
2021/10/10 03:45:40;;;;;;;10.53;8.20;;;;;;;2.27;82.73;102080.63;5002763;28;20274;-86
2021/10/10 03:48:07;;;;;;;11.60;8.23;;;;;;;2.25;82.82;102074.50;5004973;28;20218;-86
2021/10/10 03:50:33;;;;;;;11.57;8.87;;;;;;;2.22;83.01;102079.75;5014715;28;20238;-86
2021/10/10 03:53:00;;;;;;;13.30;8.67;;;;;;;2.19;82.99;102078.03;5007414;28;20270;-86
2021/10/10 03:55:34;;;;;;;10.57;8.30;;;;;;;2.18;82.84;102075.41;5019121;28;20292;-85
2021/10/10 03:58:01;;;;;;;10.17;7.90;;;;;;;2.17;82.61;102078.91;5023521;28;20666;-86
2021/10/10 04:00:29;;;;;;;9.57;7.70;;;;;;;2.13;82.63;102071.94;5016452;28;20666;-86
2021/10/10 04:02:58;;;;;;;12.67;9.17;;;;;;;2.09;82.89;102066.72;5018333;28;20290;-86
2021/10/10 04:05:36;;;;;;;11.23;7.80;;;;;;;2.07;82.63;102078.97;5015835;28;20216;-86
2021/10/10 04:08:03;;;;;;;12.27;8.57;;;;;;;2.03;82.64;102076.38;5006325;28;20199;-84
2021/10/10 04:10:31;;;;;;;11.93;8.47;;;;;;;2.01;83.17;102078.13;5011493;28;20241;-85
2021/10/10 04:12:57;;;;;;;11.17;8.50;;;;;;;2.00;82.64;102085.13;5008689;28;20289;-84
2021/10/10 04:15:24;;;;;;;9.27;7.50;;;;;;;1.97;83.02;102073.78;5002751;28;20255;-84
2021/10/10 04:17:51;;;;;;;9.57;7.73;;;;;;;1.96;83.06;102085.19;5007448;28;20208;-84
2021/10/10 04:20:19;;;;;;;11.43;7.90;;;;;;;1.95;82.90;102086.94;5009543;28;20547;-84
2021/10/10 04:22:46;;;;;;;10.10;7.87;;;;;;;1.93;82.56;102080.81;5015823;28;20222;-85
2021/10/10 04:25:14;;;;;;;10.27;7.73;;;;;;;1.92;82.63;102083.44;5011628;28;20199;-85
2021/10/10 04:27:41;;;;;;;11.33;7.87;;;;;;;1.91;82.89;102086.94;5002923;28;20560;-84
2021/10/10 04:30:12;;;;;;;10.50;7.37;;;;;;;1.91;82.54;102079.94;5004362;28;20325;-83
2021/10/10 04:32:39;;;;;;;9.97;7.33;;;;;;;1.89;82.78;102083.44;5019926;28;20227;-85
2021/10/10 04:35:06;;;;;;;10.93;7.07;;;;;;;1.84;82.62;102082.59;5007070;28;20219;-85
2021/10/10 04:37:33;;;;;;;10.03;7.47;;;;;;;1.80;82.35;102081.72;5020830;28;20238;-85
2021/10/10 04:39:59;;;;;;;9.20;7.43;;;;;;;1.77;82.54;102081.75;5020889;28;20365;-84
2021/10/10 04:42:26;;;;;;;9.50;7.50;;;;;;;1.77;82.23;102076.50;5002874;28;20228;-84
2021/10/10 04:44:54;;;;;;;9.67;7.03;;;;;;;1.77;82.33;102080.91;5007670;28;20219;-85
2021/10/10 04:47:21;;;;;;;11.00;7.23;;;;;;;1.75;82.07;102075.66;5001166;28;20243;-85
2021/10/10 04:49:48;;;;;;;9.10;7.03;;;;;;;1.76;82.05;102066.00;4997331;28;20227;-86
2021/10/10 04:52:14;;;;;;;11.50;7.57;;;;;;;1.75;81.71;102083.53;4998234;28;20239;-86
2021/10/10 04:54:42;;;;;;;9.40;7.43;;;;;;;1.75;82.47;102078.28;4998254;28;20214;-84
2021/10/10 04:57:09;;;;;;;11.47;7.83;;;;;;;1.71;81.96;102071.28;5007910;28;20212;-85
2021/10/10 04:59:36;;;;;;;9.17;7.40;;;;;;;1.67;81.74;102066.91;5009997;28;20211;-84
2021/10/10 05:02:04;;;;;;;10.17;6.97;;;;;;;1.61;81.46;102061.69;5017989;28;20241;-85
2021/10/10 05:04:33;;;;;;;10.83;7.47;;;;;;;1.58;81.75;102065.22;5007769;28;20243;-85
2021/10/10 05:07:00;;;;;;;10.60;7.67;;;;;;;1.59;81.67;102061.72;5007351;28;20697;-83
2021/10/10 05:09:26;;;;;;;12.47;7.40;;;;;;;1.58;81.33;102052.06;4998979;28;20214;-84
2021/10/10 05:11:53;;;;;;;10.87;7.80;;;;;;;1.57;81.60;102057.34;5001143;28;20605;-85
2021/10/10 05:14:19;;;;;;;11.43;8.27;;;;;;;1.52;81.73;102045.97;5015791;28;20327;-86
2021/10/10 05:16:46;;;;;;;10.73;7.90;;;;;;;1.50;81.35;102052.97;5010916;28;20215;-85
2021/10/10 05:19:14;;;;;;;11.70;8.03;;;;;;;1.47;81.34;102047.72;5003196;28;20331;-83
2021/10/10 05:21:40;;;;;;;11.37;7.13;;;;;;;1.44;81.37;102053.84;5011498;28;20295;-84
2021/10/10 05:24:09;;;;;;;11.37;7.70;;;;;;;1.39;81.32;102048.66;4998951;28;20207;-85
2021/10/10 05:26:36;;;;;;;11.43;8.93;;;;;;;1.38;81.46;102048.66;5011569;28;20233;-85
2021/10/10 05:29:03;;;;;;;14.17;8.60;;;;;;;1.35;81.66;102046.91;5005441;28;20729;-85
2021/10/10 05:31:29;;;;;;;12.13;8.00;;;;;;;1.35;82.18;102044.28;5002396;28;20572;-84
2021/10/10 05:33:56;;;;;;;12.93;8.43;;;;;;;1.32;82.08;102046.91;5010675;28;20223;-85
2021/10/10 05:36:24;;;;;;;11.73;7.60;;;;;;;1.28;82.11;102052.16;5013311;28;20313;-83
2021/10/10 05:38:51;;;;;;;10.80;7.47;;;;;;;1.24;82.28;102056.56;5005149;28;20245;-85
2021/10/10 05:41:17;;;;;;;13.33;8.17;;;;;;;1.22;82.52;102057.44;5005273;28;20233;-84
2021/10/10 05:43:44;;;;;;;12.23;7.43;;;;;;;1.19;83.02;102057.44;5013894;28;20688;-84
2021/10/10 05:46:10;;;;;;;9.57;7.47;;;;;;;1.16;82.67;102060.06;5007913;28;20294;-84
2021/10/10 05:48:37;;;;;;;9.57;7.20;;;;;;;1.13;83.15;102060.94;5007950;28;20223;-84
2021/10/10 05:51:03;;;;;;;9.53;7.50;;;;;;;1.11;83.34;102053.97;5011058;28;20230;-84
2021/10/10 05:53:32;;;;;;;10.90;7.70;;;;;;;1.08;83.38;102060.06;5020711;28;20211;-83
2021/10/10 05:56:00;;;;;;;13.20;7.20;;;;;;;1.07;83.39;102058.38;5011159;28;20234;-84
2021/10/10 05:58:30;;;;;;;13.77;7.77;;;;;;;1.06;83.81;102051.38;5020642;28;20237;-83
2021/10/10 06:00:57;;;;;;;11.23;7.67;;;;;;;1.05;83.63;102044.38;5019989;28;20223;-84
2021/10/10 06:03:23;;;;;;;10.40;7.33;;;;;;;1.07;83.91;102039.13;5016048;28;20214;-83
2021/10/10 06:05:50;;;;;;;10.90;7.57;;;;;;;1.08;83.95;102032.97;5016866;28;20211;-84
2021/10/10 06:08:16;;;;;;;11.20;7.77;;;;;;;1.10;84.23;102037.34;5009252;28;20207;-84
2021/10/10 06:10:45;;;;;;;11.40;8.40;;;;;;;1.11;84.32;102044.34;5013249;28;20241;-84
2021/10/10 06:13:12;;;;;;;12.70;7.87;;;;;;;1.13;84.00;102037.34;5000605;28;20267;-84
2021/10/10 06:15:40;;;;;;;10.10;8.03;;;;;;;1.15;84.58;102030.34;5007900;28;20565;-85
2021/10/10 06:18:08;;;;;;;10.23;7.33;;;;;;;1.18;84.67;102024.22;5008587;28;20241;-85
2021/10/10 06:20:35;;;;;;;10.67;7.93;;;;;;;1.21;84.95;102030.34;5009721;28;20642;-84
2021/10/10 06:23:02;;;;;;;9.70;7.40;;;;;;;1.23;84.90;102028.59;5014552;28;20214;-84
2021/10/10 06:25:28;;;;;;;10.23;7.43;;;;;;;1.25;84.90;102021.59;5014633;28;20293;-85
2021/10/10 06:27:56;;;;;;;10.93;7.90;;;;;;;1.27;85.19;102025.03;5013135;28;20207;-84
2021/10/10 06:30:22;;;;;;;10.57;7.70;;;;;;;1.30;85.71;102024.16;5013816;28;20237;-85
2021/10/10 06:32:49;;;;;;;11.77;8.63;;;;;;;1.34;85.50;102024.16;5014981;28;20229;-82
2021/10/10 06:35:16;;;;;;;12.07;8.40;;;;;;;1.35;86.00;102023.28;5011238;28;20213;-83
2021/10/10 06:37:42;;;;;;;11.47;8.60;;;;;;;1.42;85.86;102018.88;5013652;28;20269;-85
2021/10/10 06:40:09;;;;;;;11.90;8.43;;;;;;;1.46;85.90;102027.59;5013858;28;20195;-83
2021/10/10 06:42:36;;;;;;;15.10;8.90;;;;;;;1.49;86.21;102015.34;5013382;28;20670;-83
2021/10/10 06:45:05;;;;;;;12.87;9.07;;;;;;;1.53;86.06;102027.59;5010735;28;20203;-84
2021/10/10 06:47:32;;;;;;;10.70;8.30;;;;;;;1.58;86.25;102022.31;5013869;28;20675;-84
2021/10/10 06:49:58;;;;;;;14.10;8.53;;;;;;;1.63;86.93;102029.28;5010952;28;20210;-82
2021/10/10 06:52:25;;;;;;;11.70;8.10;;;;;;;1.68;86.62;102031.88;5011132;28;20226;-86
2021/10/10 06:54:52;;;;;;;11.07;8.87;;;;;;;1.73;86.39;102024.88;5012278;28;20227;-85
2021/10/10 06:57:18;;;;;;;11.13;8.63;;;;;;;1.79;86.41;102024.84;5009174;28;20214;-85
2021/10/10 06:59:45;;;;;;;11.00;8.33;;;;;;;1.87;87.04;102024.78;5014032;28;20631;-84
2021/10/10 07:02:13;;;;;;;12.67;8.30;;;;;;;1.93;86.96;102023.00;5009871;28;20646;-85
2021/10/10 07:04:39;;;;;;;12.47;8.70;;;;;;;2.01;87.28;102020.31;5014518;28;20300;-85
2021/10/10 07:07:06;;;;;;;13.20;8.13;;;;;;;2.11;86.98;102024.66;5010857;28;20752;-84
2021/10/10 07:09:32;;;;;;;11.90;8.07;;;;;;;2.18;87.24;102025.47;5009150;28;20203;-84
2021/10/10 07:11:59;;;;;;;10.67;7.90;;;;;;;2.27;87.79;102028.91;5012456;28;20254;-86
2021/10/10 07:14:25;;;;;;;11.53;8.23;;;;;;;2.37;87.42;102030.56;5013517;28;20290;-83
2021/10/10 07:16:52;;;;;;;10.50;8.23;;;;;;;2.44;87.50;102028.78;5012001;28;20211;-83
2021/10/10 07:19:23;;;;;;;10.43;7.60;;;;;;;2.54;87.92;102022.56;5007911;28;20294;-85
2021/10/10 07:21:57;;;;;;;10.97;8.47;;;;;;;2.64;87.96;102026.00;5014596;28;20263;-84
2021/10/10 07:27:10;;;;;;;11.73;7.83;;;;;;;2.85;87.73;102017.91;5013522;28;20253;-82
2021/10/10 07:29:36;;;;;;;11.47;8.67;;;;;;;3.00;88.66;102023.00;5013893;28;20202;-84
2021/10/10 07:32:04;;;;;;;11.90;8.50;;;;;;;3.13;88.64;102018.47;5015226;28;20615;-84
2021/10/10 07:34:33;;;;;;;11.47;8.37;;;;;;;3.32;89.33;102024.41;5020670;28;20230;-84
2021/10/10 07:37:02;;;;;;;10.43;8.70;;;;;;;3.52;88.84;102026.81;5019211;28;20212;-84
2021/10/10 07:39:31;;;;;;;9.53;7.77;;;;;;;3.70;88.66;102030.09;5019769;28;20279;-85
2021/10/10 07:41:58;;;;;;;10.80;8.00;;;;;;;3.89;89.37;102032.47;5014280;28;20290;-84
2021/10/10 07:44:29;;;;;;;12.10;8.17;;;;;;;4.06;89.20;102031.34;5012562;28;20214;-86
2021/10/10 07:47:06;;;;;;;10.03;7.43;;;;;;;4.26;89.35;102033.69;5016166;28;20736;-85
2021/10/10 07:49:35;;;;;;;10.97;8.07;;;;;;;4.48;88.83;102034.19;5013836;28;20202;-87
2021/10/10 07:52:05;;;;;;;10.00;8.10;;;;;;;4.65;88.35;102034.81;5014964;28;20231;-84
2021/10/10 07:54:34;;;;;;;11.57;8.60;;;;;;;4.84;87.44;102032.69;5011656;28;20257;-86
2021/10/10 07:57:01;;;;;;;10.60;8.27;;;;;;;5.03;87.37;102039.41;5009778;28;20250;-84
2021/10/10 07:59:28;;;;;;;10.90;8.10;;;;;;;5.23;87.30;102039.03;5012450;28;20214;-86
2021/10/10 08:01:54;;;;;;;13.60;7.97;;;;;;;5.41;86.62;102048.38;5011308;28;20231;-86
2021/10/10 08:04:21;;;;;;;10.77;7.83;;;;;;;5.59;86.67;102050.63;5013428;28;20195;-87
2021/10/10 08:06:52;;;;;;;10.30;8.07;;;;;;;5.78;85.94;102045.84;5008349;28;20286;-86
2021/10/10 08:09:19;;;;;;;12.37;7.67;;;;;;;5.96;85.33;102045.47;5011200;28;20269;-84
2021/10/10 08:11:46;;;;;;;9.10;7.87;;;;;;;6.15;84.57;102041.50;5008669;28;20318;-84
2021/10/10 08:14:13;;;;;;;8.70;7.53;;;;;;;6.33;83.38;102037.56;5012454;28;20195;-86
2021/10/10 08:16:40;;;;;;;10.80;7.87;;;;;;;6.50;82.66;102039.81;5009991;28;20226;-87
2021/10/10 08:19:07;;;;;;;11.03;7.27;;;;;;;6.67;81.71;102037.63;5009752;28;20210;-84
2021/10/10 08:21:36;;;;;;;10.20;8.13;;;;;;;6.84;80.55;102031.88;5010706;28;20690;-84
2021/10/10 08:24:05;;;;;;;9.73;7.77;;;;;;;7.03;79.64;102035.78;5013794;28;20204;-83
2021/10/10 08:26:33;;;;;;;10.50;7.90;;;;;;;7.25;79.40;102029.00;5011385;28;20286;-84
2021/10/10 08:29:00;;;;;;;10.13;7.90;;;;;;;7.46;78.44;102026.69;5006881;28;20290;-84
2021/10/10 08:31:27;;;;;;;11.80;8.43;;;;;;;7.67;77.99;102023.41;5010408;28;20227;-85
2021/10/10 08:33:56;;;;;;;10.30;7.57;;;;;;;7.87;76.53;102029.00;5008283;28;20294;-84
2021/10/10 08:36:22;;;;;;;10.30;7.77;;;;;;;8.04;75.56;102022.31;5008699;28;20226;-84
2021/10/10 08:38:49;;;;;;;12.63;7.47;;;;;;;8.15;75.02;102020.16;5010743;28;20207;-84
2021/10/10 08:41:24;;;;;;;10.43;8.07;;;;;;;8.29;74.32;102013.50;5011788;28;20222;-81
2021/10/10 08:43:51;;;;;;;10.40;7.37;;;;;;;8.44;72.74;102009.50;5009140;28;20203;-82
2021/10/10 08:46:23;;;;;;;11.93;7.80;;;;;;;8.61;72.61;102008.94;5011885;28;20662;-82
2021/10/10 08:48:50;;;;;;;9.73;7.60;;;;;;;8.76;72.24;102011.09;5007113;28;20210;-84
2021/10/10 08:51:17;;;;;;;10.73;7.53;;;;;;;8.91;71.41;102010.56;5005202;28;20238;-83
2021/10/10 08:53:43;;;;;;;8.80;7.40;;;;;;;9.09;71.12;102002.88;5010564;28;20270;-83
2021/10/10 08:56:10;;;;;;;10.67;8.47;;;;;;;9.28;70.33;102003.94;5012719;28;20226;-85
2021/10/10 08:58:42;;;;;;;9.43;7.43;;;;;;;9.44;69.02;101999.81;5011468;28;20214;-85
2021/10/10 09:01:15;;;;;;;10.27;7.63;;;;;;;9.62;68.70;101999.09;5010923;28;20219;-84
2021/10/10 09:03:47;;;;;;;8.20;7.40;;;;;;;9.75;68.10;101997.72;5011757;28;20203;-85
2021/10/10 09:06:13;;;;;;;9.97;7.47;;;;;;;9.92;67.45;102006.81;5011374;28;20215;-85
2021/10/10 09:08:40;;;;;;;9.53;8.00;;;;;;;10.07;66.70;102006.22;5005637;28;20213;-86
2021/10/10 09:11:09;;;;;;;9.97;7.27;;;;;;;10.19;65.55;102004.91;5006761;28;20662;-84
2021/10/10 09:13:36;;;;;;;9.23;7.57;;;;;;;10.29;65.46;102001.81;5020466;28;20211;-86
2021/10/10 09:16:06;;;;;;;11.10;7.73;;;;;;;10.43;64.88;101999.44;5017111;28;20231;-86
2021/10/10 09:18:35;;;;;;;11.20;8.47;;;;;;;10.57;64.97;102000.69;5015823;28;20206;-86
2021/10/10 09:21:17;;;;;;;11.10;7.43;;;;;;;10.70;64.26;102005.44;5014359;28;20238;-86
2021/10/10 09:23:47;;;;;;;11.07;7.20;;;;;;;10.81;63.44;102014.75;5021077;28;20212;-86
2021/10/10 09:26:13;;;;;;;8.60;7.57;;;;;;;10.95;62.84;102001.69;5009185;28;20239;-86
2021/10/10 09:28:41;;;;;;;8.37;7.00;;;;;;;11.09;62.35;102007.31;5018014;28;20295;-85
2021/10/10 09:31:09;;;;;;;9.73;7.30;;;;;;;11.21;61.93;102001.44;5012216;28;20917;-86
2021/10/10 09:33:41;;;;;;;8.90;7.57;;;;;;;11.32;61.94;102007.13;5015789;28;20315;-85
2021/10/10 09:36:15;;;;;;;9.57;6.90;;;;;;;11.40;61.32;102001.47;5011071;28;20292;-85
2021/10/10 09:38:48;;;;;;;10.07;7.20;;;;;;;11.49;61.28;102003.72;5011413;28;20199;-84
2021/10/10 09:41:24;;;;;;;10.50;7.30;;;;;;;11.57;61.04;102001.56;5015584;28;20258;-85
2021/10/10 09:44:06;;;;;;;8.43;7.43;;;;;;;11.64;60.66;102003.03;5011152;28;20278;-85
2021/10/10 09:46:37;;;;;;;9.13;6.73;;;;;;;11.69;60.00;102003.66;5010050;28;20207;-85
2021/10/10 09:49:20;;;;;;;10.23;7.57;;;;;;;11.75;60.11;102005.19;5015100;28;20220;-85
2021/10/10 09:51:48;;;;;;;8.47;7.20;;;;;;;11.83;59.92;102003.03;5011868;28;20573;-83
2021/10/10 09:54:14;;;;;;;9.13;8.03;;;;;;;11.90;59.41;101995.63;5013784;28;20206;-85
2021/10/10 09:57:05;;;;;;;9.33;7.57;;;;;;;12.01;60.00;101994.16;5012961;28;20224;-85
2021/10/10 09:59:32;;;;;;;10.73;7.63;;;;;;;12.11;59.86;101998.13;5011104;28;20199;-85
2021/10/10 10:02:00;;;;;;;11.77;7.70;;;;;;;12.21;59.34;101993.19;5012675;28;20241;-84
2021/10/10 10:04:27;;;;;;;9.30;7.70;;;;;;;12.31;59.54;101977.59;5015496;28;20813;-85
2021/10/10 10:06:54;;;;;;;10.00;7.40;;;;;;;12.40;58.51;101972.66;5008460;28;20333;-84
2021/10/10 10:09:20;;;;;;;11.17;6.87;;;;;;;12.44;58.27;101966.22;5011816;28;20301;-84
2021/10/10 10:11:48;;;;;;;7.77;6.90;;;;;;;12.49;58.01;101966.88;5012414;28;20230;-85
2021/10/10 10:14:16;;;;;;;9.13;7.00;;;;;;;12.58;57.98;101964.66;5011768;28;20209;-85
2021/10/10 10:16:44;;;;;;;11.53;6.63;;;;;;;12.67;57.71;101956.19;5011659;28;20681;-83
2021/10/10 10:19:16;;;;;;;8.80;7.17;;;;;;;12.76;57.49;101958.34;5011584;28;20207;-85
2021/10/10 10:21:42;;;;;;;8.53;7.00;;;;;;;12.83;56.85;101959.78;5011453;28;20216;-84
2021/10/10 10:24:12;;;;;;;11.17;7.03;;;;;;;12.89;56.39;101969.31;5011946;28;20209;-84
2021/10/10 10:26:39;;;;;;;9.27;6.80;;;;;;;12.92;56.07;101971.78;5013187;28;20619;-86
2021/10/10 10:29:08;;;;;;;8.03;6.33;;;;;;;12.96;55.37;101971.56;5012609;28;20213;-87
2021/10/10 10:31:37;;;;;;;7.97;6.27;;;;;;;13.05;54.86;101972.91;5012937;28;20240;-87
2021/10/10 10:34:20;;;;;;;7.40;6.23;;;;;;;13.09;54.97;101969.97;5010785;28;20215;-87
2021/10/10 10:36:52;;;;;;;7.93;6.10;;;;;;;13.16;54.51;101968.75;5011363;28;20195;-86
2021/10/10 10:39:37;;;;;;;8.27;6.20;;;;;;;13.23;54.39;101961.25;5007812;28;20211;-86
2021/10/10 10:42:05;;;;;;;7.93;6.00;;;;;;;13.34;53.84;101966.88;5004786;28;20219;-86
2021/10/10 10:44:37;;;;;;;7.93;5.63;;;;;;;13.46;53.79;101968.03;5010293;28;20203;-87
2021/10/10 10:47:05;;;;;;;7.87;5.93;;;;;;;13.57;53.67;101967.47;5008981;28;20286;-87
2021/10/10 10:49:46;;;;;;;8.43;5.13;;;;;;;13.66;53.21;101962.44;5010034;28;20207;-87
2021/10/10 10:52:23;;;;;;;10.27;6.13;;;;;;;13.78;52.94;101963.59;5006761;28;20223;-87
2021/10/10 10:54:52;;;;;;;8.17;5.40;;;;;;;13.88;52.73;101967.47;5010982;28;20592;-87
2021/10/10 10:57:33;;;;;;;8.83;5.43;;;;;;;13.99;51.99;101969.53;5010123;28;20211;-86
2021/10/10 11:00:02;;;;;;;6.70;4.87;;;;;;;14.05;50.84;101958.47;5008080;28;20207;-82
2021/10/10 11:02:53;;;;;;;5.97;4.87;;;;;;;14.15;51.40;101970.41;5004817;28;20234;-85
2021/10/10 11:05:42;;;;;;;6.30;4.83;;;;;;;14.29;50.93;101961.56;5000021;28;20211;-86
2021/10/10 11:08:30;;;;;;;4.73;3.80;;;;;;;14.35;48.53;101959.38;5008334;28;20196;-85
2021/10/10 11:11:12;;;;;;;4.67;3.63;;;;;;;14.39;47.60;101962.75;5004952;28;20219;-83
2021/10/10 11:13:41;;;;;;;4.93;3.40;;;;;;;14.39;46.33;101949.34;5009008;28;20253;-83
2021/10/10 11:16:09;;;;;;;4.90;4.17;;;;;;;14.41;44.96;101951.03;5011233;28;20217;-81
2021/10/10 11:18:41;;;;;;;5.50;3.70;;;;;;;14.45;44.26;101947.22;5012581;28;20217;-83
2021/10/10 11:21:08;;;;;;;5.10;3.47;;;;;;;14.50;44.33;101950.50;5008712;28;20223;-82
2021/10/10 11:23:36;;;;;;;4.33;3.30;;;;;;;14.57;43.90;101943.81;5010180;28;20198;-84
2021/10/10 11:26:06;;;;;;;5.60;3.70;;;;;;;14.62;42.82;101937.31;5007647;28;20208;-85
2021/10/10 11:28:39;;;;;;;5.63;4.43;;;;;;;14.66;42.34;101938.84;5010903;28;20214;-84
2021/10/10 11:31:08;;;;;;;5.53;4.27;;;;;;;14.72;41.73;101933.97;5008430;28;20242;-84
2021/10/10 11:33:36;;;;;;;4.60;3.37;;;;;;;14.80;41.49;101936.19;5008697;28;20234;-82